Time;durP1;ratioP1;P1;durP2;ratioP2;P2;SDS_P1;SDS_P2;PMS_P1;PMS_P2;Temp;Humidity;BMP_temperature;BMP_pressure;BME280_temperature;BME280_humidity;BME280_pressure;Samples;Min_cycle;Max_cycle;Signal;HPM_P1;HPM_P2
2023/02/12 00:02:15;;;;;;;9.63;8.07;;;;;;;-0.92;74.98;100400.25;5086098;28;20059;-90
2023/02/12 00:04:42;;;;;;;8.77;7.80;;;;;;;-0.89;74.58;100403.00;5089071;28;20040;-92
2023/02/12 00:07:07;;;;;;;13.50;9.35;;;;;;;-0.81;74.93;100419.91;5093976;28;20093;-91
2023/02/12 00:09:33;;;;;;;10.65;8.20;;;;;;;-0.85;74.38;100417.97;5090406;28;20055;-92
2023/02/12 00:11:59;;;;;;;8.95;7.15;;;;;;;-0.89;73.86;100408.22;5090224;28;20085;-92
2023/02/12 00:14:25;;;;;;;9.02;7.43;;;;;;;-0.89;74.93;100418.66;5094220;28;20109;-92
2023/02/12 00:16:51;;;;;;;9.45;7.32;;;;;;;-0.95;75.43;100415.81;5091899;28;20035;-92
2023/02/12 00:19:19;;;;;;;8.95;7.07;;;;;;;-0.95;75.79;100418.41;5086999;28;20055;-91
2023/02/12 00:21:45;;;;;;;8.93;7.00;;;;;;;-0.95;74.37;100426.25;5090262;28;20050;-90
2023/02/12 00:24:11;;;;;;;9.70;7.47;;;;;;;-1.09;74.49;100408.19;5096341;28;20058;-92
2023/02/12 00:26:37;;;;;;;8.98;7.07;;;;;;;-0.96;74.24;100421.81;5092655;28;20111;-92
2023/02/12 00:29:03;;;;;;;10.32;7.70;;;;;;;-1.00;74.19;100423.41;5092591;28;20044;-92
2023/02/12 00:31:30;;;;;;;9.43;7.43;;;;;;;-1.18;73.95;100391.25;5081537;28;20512;-92
2023/02/12 00:33:56;;;;;;;9.45;7.43;;;;;;;-0.87;73.12;100423.16;5088441;28;20063;-90
2023/02/12 00:36:26;;;;;;;9.90;7.07;;;;;;;-0.86;72.55;100414.47;5092189;28;20142;-91
2023/02/12 00:38:54;;;;;;;10.73;7.57;;;;;;;-0.90;73.75;100428.22;5092567;28;20439;-92
2023/02/12 00:41:21;;;;;;;9.23;7.63;;;;;;;-0.91;73.70;100418.63;5095253;28;20042;-92
2023/02/12 00:43:48;;;;;;;8.90;7.43;;;;;;;-0.93;74.18;100420.25;5093556;28;20135;-93
2023/02/12 00:46:14;;;;;;;9.18;7.55;;;;;;;-1.15;75.25;100399.19;5096516;28;20040;-93
2023/02/12 00:48:40;;;;;;;11.63;7.35;;;;;;;-1.19;76.22;100397.25;5092888;28;20036;-92
2023/02/12 00:51:06;;;;;;;9.38;7.13;;;;;;;-1.08;76.15;100423.06;5085125;28;20082;-90
2023/02/12 00:53:33;;;;;;;10.30;7.78;;;;;;;-1.11;76.11;100422.91;5092139;28;20130;-91
2023/02/12 00:55:59;;;;;;;8.48;7.30;;;;;;;-1.11;76.56;100417.69;5086541;28;20444;-91
2023/02/12 00:58:25;;;;;;;11.68;7.22;;;;;;;-1.11;76.02;100416.78;5087530;28;20072;-91
2023/02/12 01:00:53;;;;;;;10.27;7.60;;;;;;;-1.21;75.81;100402.44;5090462;28;20095;-92
2023/02/12 01:03:19;;;;;;;10.18;7.88;;;;;;;-1.08;76.08;100415.22;5080796;28;20060;-92
2023/02/12 01:05:45;;;;;;;8.18;7.10;;;;;;;-1.15;76.76;100399.19;5095836;28;20051;-93
2023/02/12 01:08:12;;;;;;;11.00;8.07;;;;;;;-1.16;76.58;100403.53;5097970;28;20409;-91
2023/02/12 01:10:40;;;;;;;12.30;9.40;;;;;;;-1.11;76.29;100415.06;5101036;28;20067;-91
2023/02/12 01:13:06;;;;;;;9.18;7.82;;;;;;;-1.21;75.73;100391.06;5088553;28;20481;-93
2023/02/12 01:15:32;;;;;;;10.50;7.82;;;;;;;-1.16;76.09;100408.75;5095955;28;20044;-92
2023/02/12 01:17:58;;;;;;;11.23;8.00;;;;;;;-1.21;76.47;100406.75;5088064;28;20047;-93
2023/02/12 01:20:24;;;;;;;10.23;7.65;;;;;;;-1.25;77.11;100418.78;5083837;28;20098;-92
2023/02/12 01:22:51;;;;;;;10.38;7.90;;;;;;;-1.22;77.41;100426.72;5085005;28;20456;-91
2023/02/12 01:25:17;;;;;;;10.52;8.13;;;;;;;-1.26;77.45;100423.09;5091786;28;20426;-92
2023/02/12 01:27:44;;;;;;;9.48;7.88;;;;;;;-1.26;76.36;100419.59;5085592;28;20040;-92
2023/02/12 01:30:13;;;;;;;11.43;9.15;;;;;;;-1.38;76.57;100401.66;5085649;28;20126;-91
2023/02/12 01:32:39;;;;;;;11.63;8.65;;;;;;;-1.28;76.21;100408.16;5088362;28;20493;-91
2023/02/12 01:35:08;;;;;;;9.57;8.38;;;;;;;-1.28;76.51;100409.09;5095666;28;20098;-92
2023/02/12 01:37:35;;;;;;;8.93;7.20;;;;;;;-1.39;76.12;100402.44;5089972;28;20043;-91
2023/02/12 01:40:00;;;;;;;9.15;6.97;;;;;;;-1.32;74.41;100375.84;5090528;28;20580;-92
2023/02/12 01:42:26;;;;;;;9.13;7.18;;;;;;;-1.29;74.83;100380.31;5084474;28;20060;-92
2023/02/12 01:45:28;;;;;;;9.32;7.05;;;;;;;-1.09;74.75;100405.59;5087091;28;20046;-91
2023/02/12 01:47:59;;;;;;;8.95;6.95;;;;;;;-1.20;75.02;100396.38;5079786;28;20040;-92
2023/02/12 01:50:25;;;;;;;11.38;8.10;;;;;;;-1.11;75.21;100411.56;5085713;28;20055;-90
2023/02/12 01:52:55;;;;;;;7.82;6.72;;;;;;;-1.17;75.57;100406.97;5090057;28;20036;-93
2023/02/12 01:55:21;;;;;;;9.85;6.78;;;;;;;-1.16;76.22;100410.47;5088245;28;20138;-93
2023/02/12 01:57:48;;;;;;;7.82;6.50;;;;;;;-1.23;76.30;100398.88;5085856;28;20043;-92
2023/02/12 02:00:16;;;;;;;9.93;6.78;;;;;;;-1.45;76.64;100379.59;5093280;28;20040;-92
2023/02/12 02:02:44;;;;;;;9.63;6.75;;;;;;;-1.39;77.08;100396.34;5093734;28;20046;-92
2023/02/12 02:05:14;;;;;;;10.98;7.55;;;;;;;-1.48;77.16;100391.59;5087698;28;20092;-92
2023/02/12 02:07:42;;;;;;;9.95;7.00;;;;;;;-1.55;77.69;100382.59;5087982;28;20562;-92
2023/02/12 02:10:09;;;;;;;10.45;7.68;;;;;;;-1.55;78.49;100394.75;5083127;28;20048;-92
2023/02/12 02:15:39;;;;;;;9.55;7.60;;;;;;;-1.50;78.92;100394.13;5107576;27;20385;-93
2023/02/12 02:18:10;;;;;;;9.98;7.88;;;;;;;-1.66;78.83;100378.59;5090223;28;20539;-94
2023/02/12 02:21:00;;;;;;;11.52;8.52;;;;;;;-1.57;79.71;100392.06;5090459;28;20090;-94
2023/02/12 02:23:44;;;;;;;9.00;7.28;;;;;;;-1.65;80.16;100372.53;5097336;28;20126;-94
2023/02/12 02:26:36;;;;;;;10.05;8.13;;;;;;;-1.52;79.10;100390.56;5093022;28;20588;-94
2023/02/12 02:29:19;;;;;;;9.93;7.50;;;;;;;-1.61;78.96;100355.31;5094858;28;20051;-94
2023/02/12 02:31:55;;;;;;;8.70;7.00;;;;;;;-1.67;79.07;100340.25;5096384;28;20393;-93
2023/02/12 02:34:28;;;;;;;8.68;7.55;;;;;;;-1.54;79.11;100365.22;5090388;28;20048;-93
2023/02/12 02:37:04;;;;;;;9.20;7.25;;;;;;;-1.66;78.80;100353.38;5094507;28;20070;-93
2023/02/12 02:39:38;;;;;;;9.73;7.15;;;;;;;-1.70;79.17;100343.63;5093265;28;20552;-95
2023/02/12 02:42:08;;;;;;;10.48;7.82;;;;;;;-1.58;79.11;100369.41;5095519;28;20052;-93
2023/02/12 02:44:37;;;;;;;10.57;8.00;;;;;;;-1.67;79.35;100356.81;5096953;28;20962;-94
2023/02/12 02:47:08;;;;;;;9.20;7.00;;;;;;;-1.71;79.01;100340.97;5102666;28;20036;-94
2023/02/12 02:49:39;;;;;;;8.55;6.70;;;;;;;-1.61;78.72;100350.09;5092916;28;20036;-94
2023/02/12 02:52:08;;;;;;;7.38;5.63;;;;;;;-1.63;78.27;100350.03;5094290;28;20454;-93
2023/02/12 02:54:36;;;;;;;;;;;;;;;-1.58;77.86;100364.19;5091149;28;20893;-92
2023/02/12 02:57:07;;;;;;;6.75;5.10;;;;;;;-1.63;78.20;100364.78;5097023;28;19974;-93
2023/02/12 02:59:37;;;;;;;9.05;5.93;;;;;;;-1.77;78.83;100341.56;5095009;28;20036;-94
2023/02/12 03:02:11;;;;;;;7.95;5.72;;;;;;;-1.72;78.65;100349.59;5096254;28;20040;-94
2023/02/12 03:04:42;;;;;;;8.38;6.20;;;;;;;-1.77;78.79;100348.50;5094621;28;20040;-93
2023/02/12 03:07:12;;;;;;;7.30;5.78;;;;;;;-1.89;78.93;100333.13;5090565;28;20040;-94
2023/02/12 03:09:44;;;;;;;8.05;5.47;;;;;;;-1.92;80.16;100339.09;5097995;28;20135;-94
2023/02/12 03:12:14;;;;;;;8.50;6.28;;;;;;;-1.99;80.14;100337.03;5095390;28;20048;-94
2023/02/12 03:14:47;;;;;;;6.88;5.60;;;;;;;-2.05;80.55;100339.34;5091013;28;20051;-93
2023/02/12 03:17:21;;;;;;;7.25;6.28;;;;;;;-1.96;80.57;100362.34;5092233;28;20070;-94
2023/02/12 03:19:51;;;;;;;7.28;6.20;;;;;;;-2.14;80.96;100355.44;5092333;28;20106;-92
2023/02/12 03:22:22;;;;;;;8.30;6.53;;;;;;;-2.14;81.27;100351.94;5091416;28;20481;-93
2023/02/12 03:24:52;;;;;;;8.65;6.50;;;;;;;-2.24;81.28;100337.53;5087812;28;20032;-94
2023/02/12 03:27:22;;;;;;;6.50;5.25;;;;;;;-2.19;80.92;100346.50;5078837;28;20127;-93
2023/02/12 03:29:48;;;;;;;7.97;5.68;;;;;;;-2.19;80.80;100345.56;5083311;28;20371;-92
2023/02/12 03:32:29;;;;;;;8.18;6.35;;;;;;;-2.25;80.80;100337.50;5081989;28;20033;-93
2023/02/12 03:35:07;;;;;;;9.45;6.32;;;;;;;-2.20;82.59;100364.66;5079890;28;20041;-93
2023/02/12 03:37:37;;;;;;;8.82;6.80;;;;;;;-2.23;82.64;100352.38;5080720;28;20037;-92
2023/02/12 03:40:14;;;;;;;7.35;5.90;;;;;;;-2.21;82.31;100353.34;5081973;28;20448;-94
2023/02/12 03:42:46;;;;;;;6.40;5.40;;;;;;;-2.28;81.87;100352.16;5076239;28;20044;-94
2023/02/12 03:45:21;;;;;;;8.25;5.70;;;;;;;-2.28;81.93;100348.63;5079233;28;20098;-95
2023/02/12 03:47:55;;;;;;;8.63;6.18;;;;;;;-2.28;82.05;100352.16;5078824;28;20108;-93
2023/02/12 03:50:30;;;;;;;11.07;6.07;;;;;;;-2.36;82.33;100340.44;5077925;28;20064;-93
2023/02/12 03:52:56;;;;;;;8.50;6.05;;;;;;;-2.30;82.35;100359.00;5079488;28;20047;-93
2023/02/12 03:55:23;;;;;;;7.40;6.03;;;;;;;-2.37;82.77;100361.19;5078294;28;20135;-92
2023/02/12 03:57:54;;;;;;;8.55;6.95;;;;;;;-2.47;83.00;100341.63;5082011;28;20040;-94
2023/02/12 04:00:22;;;;;;;7.57;6.25;;;;;;;-2.44;83.39;100361.72;5076429;28;20536;-95
2023/02/12 04:02:51;;;;;;;8.90;6.83;;;;;;;-2.52;83.88;100341.38;5080613;28;20036;-95
2023/02/12 04:05:19;;;;;;;9.20;7.10;;;;;;;-2.54;83.84;100340.44;5075407;28;20044;-93
2023/02/12 04:07:46;;;;;;;8.60;6.97;;;;;;;-2.61;84.17;100342.63;5084921;28;20043;-92
2023/02/12 04:10:12;;;;;;;11.85;7.80;;;;;;;-2.52;84.36;100367.41;5077689;28;20051;-95
2023/02/12 04:12:42;;;;;;;9.20;7.25;;;;;;;-2.65;84.67;100345.88;5085531;28;20517;-94
2023/02/12 04:15:31;;;;;;;12.15;7.30;;;;;;;-2.55;84.51;100355.97;5083459;28;20040;-92
2023/02/12 04:18:06;;;;;;;9.57;7.17;;;;;;;-2.61;84.72;100358.25;5080691;28;21476;-94
2023/02/12 04:20:43;;;;;;;9.00;6.95;;;;;;;-2.69;84.45;100358.75;5074906;28;20043;-93
2023/02/12 04:23:16;;;;;;;9.52;6.78;;;;;;;-2.70;85.67;100349.16;5082645;28;20492;-91
2023/02/12 04:25:52;;;;;;;8.10;6.75;;;;;;;-2.76;85.40;100341.03;5076713;28;20040;-94
2023/02/12 04:28:28;;;;;;;9.30;6.85;;;;;;;-2.85;85.77;100337.06;5082555;28;20043;-93
2023/02/12 04:30:59;;;;;;;8.93;6.85;;;;;;;-2.76;86.23;100334.94;5074987;28;20131;-95
2023/02/12 04:33:33;;;;;;;8.50;6.57;;;;;;;-2.77;85.30;100338.38;5074227;28;20131;-93
2023/02/12 04:36:02;;;;;;;9.50;7.10;;;;;;;-2.74;85.87;100341.09;5082462;28;20044;-93
2023/02/12 04:38:35;;;;;;;9.88;6.53;;;;;;;-2.83;85.94;100332.84;5074055;28;20124;-94
2023/02/12 04:41:04;;;;;;;7.82;6.22;;;;;;;-2.71;85.82;100347.38;5068778;28;20041;-93
2023/02/12 04:43:34;;;;;;;8.75;6.30;;;;;;;-2.76;85.79;100338.41;5078428;28;20043;-93
2023/02/12 04:46:00;;;;;;;9.40;6.68;;;;;;;-2.71;85.65;100344.78;5078898;28;20047;-93
2023/02/12 04:48:27;;;;;;;8.05;6.15;;;;;;;-2.85;85.31;100321.44;5074250;28;20041;-94
2023/02/12 04:50:53;;;;;;;7.10;6.07;;;;;;;-2.83;85.89;100338.03;5074695;28;20037;-95
2023/02/12 04:53:19;;;;;;;9.50;6.20;;;;;;;-2.95;86.19;100326.19;5077864;28;20062;-94
2023/02/12 04:55:46;;;;;;;7.85;5.75;;;;;;;-2.85;86.74;100344.88;5076166;28;20051;-94
2023/02/12 04:58:12;;;;;;;8.68;5.85;;;;;;;-2.93;87.64;100329.75;5081418;28;20098;-93
2023/02/12 05:00:38;;;;;;;7.53;6.15;;;;;;;-2.86;86.50;100341.38;5076925;28;20493;-94
2023/02/12 05:03:05;;;;;;;7.60;6.18;;;;;;;-2.96;85.86;100318.28;5076250;28;20086;-93
2023/02/12 05:05:32;;;;;;;8.02;6.10;;;;;;;-2.91;86.78;100338.53;5075214;28;20040;-94
2023/02/12 05:07:58;;;;;;;8.02;5.70;;;;;;;-3.04;87.71;100311.78;5074903;28;20506;-93
2023/02/12 05:10:24;;;;;;;7.15;5.95;;;;;;;-2.95;86.91;100328.78;5075574;28;20044;-93
2023/02/12 05:12:51;;;;;;;7.82;5.75;;;;;;;-2.95;87.15;100338.28;5079219;28;20063;-94
2023/02/12 05:15:17;;;;;;;8.50;6.30;;;;;;;-3.01;87.75;100340.59;5072987;28;20055;-93
2023/02/12 05:17:44;;;;;;;8.50;6.93;;;;;;;-3.05;88.25;100325.63;5079785;28;20485;-93
2023/02/12 05:20:11;;;;;;;8.50;6.72;;;;;;;-3.06;88.29;100321.22;5076827;28;20519;-93
2023/02/12 05:22:38;;;;;;;7.18;6.25;;;;;;;-2.99;87.31;100325.91;5079622;28;20070;-93
2023/02/12 05:25:05;;;;;;;8.98;6.78;;;;;;;-2.90;87.02;100345.53;5074732;28;20086;-93
2023/02/12 05:27:31;;;;;;;8.35;6.68;;;;;;;-2.91;86.87;100350.66;5076262;28;20064;-94
2023/02/12 05:29:57;;;;;;;8.07;6.25;;;;;;;-3.00;87.94;100344.97;5073522;28;20037;-93
2023/02/12 05:32:23;;;;;;;6.82;5.95;;;;;;;-3.17;87.80;100316.34;5076620;28;20044;-94
2023/02/12 05:34:48;;;;;;;7.78;5.78;;;;;;;-3.15;87.68;100338.13;5080724;28;20032;-94
2023/02/12 05:37:14;;;;;;;6.72;5.50;;;;;;;-3.15;87.74;100345.06;5076560;28;20044;-94
2023/02/12 05:39:42;;;;;;;6.30;5.35;;;;;;;-3.13;87.61;100349.50;5073453;28;20048;-92
2023/02/12 05:42:07;;;;;;;7.03;5.95;;;;;;;-3.13;87.97;100349.50;5078300;28;20474;-93
2023/02/12 05:44:33;;;;;;;7.70;5.75;;;;;;;-3.11;88.24;100345.28;5078682;28;20072;-91
2023/02/12 05:46:59;;;;;;;7.30;6.07;;;;;;;-3.05;87.82;100349.94;5082616;28;20071;-93
2023/02/12 05:49:25;;;;;;;7.50;6.53;;;;;;;-3.06;88.10;100357.66;5078713;28;20040;-93
2023/02/12 05:51:51;;;;;;;8.00;6.57;;;;;;;-3.08;87.29;100341.06;5089849;28;20031;-93
2023/02/12 05:54:17;;;;;;;8.07;6.18;;;;;;;-3.11;87.34;100332.28;5075967;28;20044;-92
2023/02/12 05:56:46;;;;;;;11.75;6.10;;;;;;;-3.10;88.09;100336.69;5074597;28;20067;-91
2023/02/12 05:59:14;;;;;;;7.82;5.97;;;;;;;-3.15;87.41;100332.03;5081221;28;20056;-92
2023/02/12 06:01:42;;;;;;;9.05;5.97;;;;;;;-3.16;87.76;100333.75;5075705;28;20044;-93
2023/02/12 06:04:13;;;;;;;7.57;6.00;;;;;;;-3.10;87.64;100348.81;5074374;28;20040;-96
2023/02/12 06:06:40;;;;;;;7.38;5.55;;;;;;;-3.06;87.29;100357.66;5076626;28;20126;-95
2023/02/12 06:09:07;;;;;;;7.43;5.90;;;;;;;-3.04;87.85;100374.25;5076008;28;20040;-92
2023/02/12 06:11:33;;;;;;;6.97;5.72;;;;;;;-3.13;88.40;100366.84;5075666;28;20066;-91
2023/02/12 06:14:02;;;;;;;7.30;6.00;;;;;;;-3.22;89.24;100354.25;5074316;28;20048;-93
2023/02/12 06:16:28;;;;;;;7.88;6.13;;;;;;;-3.13;89.48;100369.44;5077940;28;20131;-94
2023/02/12 06:18:55;;;;;;;7.88;6.15;;;;;;;-3.15;89.96;100364.16;5071567;28;20063;-93
2023/02/12 06:21:22;;;;;;;7.07;6.30;;;;;;;-3.08;89.89;100359.28;5073328;28;20496;-93
2023/02/12 06:23:50;;;;;;;8.40;6.30;;;;;;;-3.00;89.03;100360.59;5077357;28;20041;-92
2023/02/12 06:26:17;;;;;;;9.05;6.55;;;;;;;-3.17;88.93;100339.75;5076390;28;20102;-92
2023/02/12 06:28:42;;;;;;;9.30;6.40;;;;;;;-3.08;89.63;100351.47;5075039;28;20037;-92
2023/02/12 06:31:19;;;;;;;8.43;6.38;;;;;;;-2.91;89.20;100374.06;5080485;28;20032;-93
2023/02/12 06:33:45;;;;;;;7.78;6.72;;;;;;;-2.90;88.27;100360.25;5074406;28;20513;-91
2023/02/12 06:36:10;;;;;;;7.95;6.10;;;;;;;-2.78;88.26;100376.50;5091825;28;20093;-93
2023/02/12 06:38:36;;;;;;;6.80;5.72;;;;;;;-2.87;88.24;100357.81;5074149;28;20052;-92
2023/02/12 06:41:02;;;;;;;7.43;5.88;;;;;;;-2.75;88.87;100378.38;5078243;28;20041;-92
2023/02/12 06:43:28;;;;;;;7.32;6.07;;;;;;;-2.71;88.02;100380.31;5082259;28;20046;-93
2023/02/12 06:45:54;;;;;;;8.45;6.30;;;;;;;-2.75;87.58;100368.88;5065296;28;20476;-93
2023/02/12 06:48:21;;;;;;;7.88;6.60;;;;;;;-2.79;87.64;100359.09;5084963;28;20414;-92
2023/02/12 06:50:47;;;;;;;10.00;7.35;;;;;;;-2.65;87.64;100358.91;5089639;28;20072;-92
2023/02/12 06:53:13;;;;;;;9.02;7.50;;;;;;;-2.55;87.33;100374.19;5072843;28;20060;-93
2023/02/12 06:55:39;;;;;;;10.75;8.40;;;;;;;-2.55;87.27;100356.84;5081793;28;20097;-92
2023/02/12 06:58:04;;;;;;;9.57;7.20;;;;;;;-2.47;87.48;100385.91;5089327;28;20033;-93
2023/02/12 07:00:30;;;;;;;9.38;7.07;;;;;;;-2.44;87.42;100382.56;5078682;28;20052;-93
2023/02/12 07:02:56;;;;;;;8.43;7.55;;;;;;;-2.29;87.18;100406.78;5076560;28;20036;-93
2023/02/12 07:05:24;;;;;;;8.60;7.18;;;;;;;-2.24;86.84;100402.69;5079873;28;20139;-93
2023/02/12 07:07:50;;;;;;;8.35;6.70;;;;;;;-2.20;86.45;100406.34;5091104;28;20044;-95
2023/02/12 07:10:16;;;;;;;8.48;6.85;;;;;;;-2.04;85.89;100419.31;5076242;28;20041;-92
2023/02/12 07:12:42;;;;;;;8.32;6.95;;;;;;;-1.99;84.21;100407.41;5078385;28;20064;-92
2023/02/12 07:15:08;;;;;;;8.50;6.38;;;;;;;-1.77;83.78;100421.50;5082134;28;20079;-92
2023/02/12 07:17:34;;;;;;;8.63;6.10;;;;;;;-1.83;83.01;100393.41;5087215;28;20044;-93
2023/02/12 07:20:00;;;;;;;7.35;6.18;;;;;;;-1.79;82.00;100374.50;5088951;28;20043;-92
2023/02/12 07:22:28;;;;;;;9.20;6.53;;;;;;;-1.52;81.74;100384.44;5087101;28;20040;-93
2023/02/12 07:24:53;;;;;;;9.23;7.75;;;;;;;-1.52;81.43;100369.69;5087611;28;20493;-93
2023/02/12 07:27:19;;;;;;;8.82;7.15;;;;;;;-1.40;81.30;100376.31;5090221;28;20044;-92
2023/02/12 07:29:45;;;;;;;9.63;6.80;;;;;;;-1.40;81.38;100369.38;5083552;28;20043;-94
2023/02/12 07:32:11;;;;;;;9.98;7.55;;;;;;;-1.30;81.24;100368.06;5079214;28;20144;-92
2023/02/12 07:34:37;;;;;;;12.07;7.57;;;;;;;-1.21;80.69;100370.19;5075997;28;20062;-92
2023/02/12 07:37:03;;;;;;;9.98;7.95;;;;;;;-1.06;79.59;100382.25;5076059;28;20036;-92
2023/02/12 07:39:30;;;;;;;9.82;7.80;;;;;;;-0.65;76.83;100401.50;5084728;28;20044;-92
2023/02/12 07:41:56;;;;;;;10.63;8.10;;;;;;;-0.47;75.63;100395.28;5075834;28;20068;-92
2023/02/12 07:44:22;;;;;;;9.13;8.05;;;;;;;-0.48;75.40;100386.56;5084237;28;20052;-93
2023/02/12 07:46:48;;;;;;;7.40;6.18;;;;;;;-0.33;74.09;100365.38;5075165;28;20034;-92
2023/02/12 07:49:17;;;;;;;6.88;6.13;;;;;;;-0.15;73.44;100382.66;5076145;28;20037;-93
2023/02/12 07:51:43;;;;;;;7.97;6.72;;;;;;;-0.13;73.06;100375.78;5087434;28;20071;-92
2023/02/12 07:54:09;;;;;;;10.07;7.57;;;;;;;0.14;73.17;100396.97;5075942;28;20064;-91
2023/02/12 07:56:38;;;;;;;8.90;6.60;;;;;;;0.15;71.47;100394.41;5084424;28;20054;-93
2023/02/12 07:59:06;;;;;;;9.57;6.90;;;;;;;0.24;71.46;100391.28;5076820;28;20489;-93
2023/02/12 08:01:34;;;;;;;7.85;6.20;;;;;;;0.50;71.12;100413.25;5079338;28;20292;-92
2023/02/12 08:04:01;;;;;;;7.30;6.25;;;;;;;0.50;70.97;100394.00;5093412;28;20047;-93
2023/02/12 08:06:29;;;;;;;7.45;6.47;;;;;;;0.60;69.18;100381.34;5077936;28;20040;-93
2023/02/12 08:08:57;;;;;;;8.35;6.60;;;;;;;0.77;68.95;100402.06;5080692;28;20062;-93
2023/02/12 08:11:24;;;;;;;7.88;6.50;;;;;;;0.77;67.77;100381.13;5088327;28;20066;-92
2023/02/12 08:13:52;;;;;;;7.40;5.95;;;;;;;0.91;67.13;100390.41;5081435;28;20098;-93
2023/02/12 08:16:20;;;;;;;8.25;6.68;;;;;;;0.89;67.09;100393.78;5075306;28;20082;-92
2023/02/12 08:18:46;;;;;;;8.30;6.60;;;;;;;0.97;66.82;100384.47;5076590;28;20041;-92
2023/02/12 08:21:15;;;;;;;7.85;6.18;;;;;;;1.13;66.63;100384.22;5075575;28;20040;-92
2023/02/12 08:23:41;;;;;;;7.75;6.20;;;;;;;1.34;66.12;100386.72;5070797;28;20142;-94
2023/02/12 08:26:09;;;;;;;7.78;6.18;;;;;;;1.30;64.77;100363.88;5075739;28;20078;-95
2023/02/12 08:28:36;;;;;;;7.80;6.43;;;;;;;1.57;65.29;100394.53;5095648;28;20078;-93
2023/02/12 08:31:05;;;;;;;7.97;6.82;;;;;;;1.80;64.48;100408.41;5095493;28;20388;-95
2023/02/12 08:33:31;;;;;;;8.88;6.82;;;;;;;1.84;63.85;100389.31;5095554;28;20048;-95
2023/02/12 08:36:02;;;;;;;7.18;6.43;;;;;;;2.13;63.34;100400.81;5077904;28;20094;-94
2023/02/12 08:38:28;;;;;;;7.10;6.22;;;;;;;2.16;62.33;100379.91;5075010;28;20040;-93
2023/02/12 08:40:54;;;;;;;7.80;6.45;;;;;;;2.34;61.24;100379.63;5074963;28;20036;-95
2023/02/12 08:43:20;;;;;;;8.30;6.50;;;;;;;2.52;61.16;100387.19;5075166;28;20041;-93
2023/02/12 08:45:46;;;;;;;8.55;6.38;;;;;;;2.60;60.34;100369.94;5082950;28;20040;-95
2023/02/12 08:48:13;;;;;;;7.60;5.85;;;;;;;2.76;59.66;100379.16;5085870;28;20417;-94
2023/02/12 08:50:39;;;;;;;7.60;6.45;;;;;;;2.74;59.42;100357.22;5075512;28;20501;-94
2023/02/12 08:53:06;;;;;;;7.30;6.07;;;;;;;2.92;59.00;100370.00;5080685;28;20047;-94
2023/02/12 08:55:32;;;;;;;7.38;6.38;;;;;;;2.80;58.84;100383.66;5093396;28;20040;-92
2023/02/12 08:57:58;;;;;;;7.22;6.05;;;;;;;2.65;58.98;100356.94;5080537;28;20051;-93
2023/02/12 09:00:24;;;;;;;7.68;6.25;;;;;;;2.86;59.31;100367.19;5079134;28;20048;-92
2023/02/12 09:02:50;;;;;;;7.38;6.35;;;;;;;2.77;59.61;100367.78;5077132;28;20036;-93
2023/02/12 09:05:17;;;;;;;7.28;6.57;;;;;;;2.85;59.34;100368.03;5074861;28;20559;-94
2023/02/12 09:07:43;;;;;;;8.38;6.47;;;;;;;2.90;59.46;100357.66;5074776;28;20080;-94
2023/02/12 09:10:09;;;;;;;8.18;6.82;;;;;;;3.13;58.31;100367.09;5075084;28;20068;-93
2023/02/12 09:12:35;;;;;;;8.45;6.78;;;;;;;3.24;58.46;100355.16;5083695;28;20044;-94
2023/02/12 09:15:02;;;;;;;7.45;6.70;;;;;;;3.35;57.81;100338.78;5084756;28;20053;-94
2023/02/12 09:17:29;;;;;;;7.80;6.97;;;;;;;3.32;57.56;100342.22;5075822;28;20108;-94
2023/02/12 09:19:56;;;;;;;7.30;6.45;;;;;;;3.58;57.01;100342.00;5095073;28;20043;-95
2023/02/12 09:22:23;;;;;;;8.18;6.88;;;;;;;3.72;55.96;100345.91;5091070;28;20049;-95
2023/02/12 09:24:49;;;;;;;7.80;6.53;;;;;;;3.80;56.23;100340.84;5075778;28;20047;-93
2023/02/12 09:27:15;;;;;;;7.60;6.63;;;;;;;3.96;56.00;100342.13;5074445;28;20048;-95
2023/02/12 09:29:41;;;;;;;9.50;6.95;;;;;;;4.07;54.87;100341.50;5074661;28;20044;-92
2023/02/12 09:32:08;;;;;;;8.18;6.78;;;;;;;4.15;54.59;100368.03;5073553;28;20036;-93
2023/02/12 09:34:34;;;;;;;8.57;7.03;;;;;;;4.32;55.26;100364.06;5073048;28;20037;-92
2023/02/12 09:37:00;;;;;;;8.20;6.20;;;;;;;4.50;55.01;100368.88;5080376;28;20043;-93
2023/02/12 09:39:29;;;;;;;7.93;7.05;;;;;;;4.59;54.49;100365.56;5070167;28;20094;-93
2023/02/12 09:42:14;;;;;;;8.95;7.45;;;;;;;4.79;54.23;100368.63;5074344;28;20070;-93
2023/02/12 09:44:50;;;;;;;7.97;7.15;;;;;;;4.84;53.68;100376.66;5073247;28;20132;-93
2023/02/12 09:47:22;;;;;;;8.27;7.25;;;;;;;4.73;53.41;100361.50;5077809;28;20128;-93
2023/02/12 09:50:12;;;;;;;9.07;7.63;;;;;;;4.84;54.46;100380.19;5085268;28;20042;-94
2023/02/12 09:52:38;;;;;;;9.23;7.68;;;;;;;4.89;53.73;100356.56;5073687;28;20047;-94
2023/02/12 09:55:13;;;;;;;8.90;8.00;;;;;;;5.10;53.09;100371.94;5073791;28;20174;-93
2023/02/12 09:57:39;;;;;;;8.73;7.32;;;;;;;5.24;53.20;100386.28;5071826;28;20067;-94
2023/02/12 10:00:07;;;;;;;9.60;7.65;;;;;;;5.33;53.21;100375.94;5073367;28;20037;-93
2023/02/12 10:02:35;;;;;;;8.35;7.45;;;;;;;5.44;53.02;100364.69;5074348;28;20422;-93
2023/02/12 10:05:01;;;;;;;8.65;7.10;;;;;;;5.64;52.11;100365.97;5074355;28;20506;-93
2023/02/12 10:07:58;;;;;;;8.88;7.40;;;;;;;5.78;51.30;100339.81;5082752;28;20051;-93
2023/02/12 10:10:41;;;;;;;8.35;7.40;;;;;;;5.98;51.13;100345.47;5083006;28;20132;-93
2023/02/12 10:13:16;;;;;;;8.50;7.50;;;;;;;6.21;51.17;100340.56;5077458;28;20040;-93
2023/02/12 10:15:49;;;;;;;8.15;7.30;;;;;;;6.45;49.88;100341.81;5075510;28;20520;-93
2023/02/12 10:18:36;;;;;;;8.52;7.22;;;;;;;6.56;49.27;100335.81;5075408;28;20059;-93
2023/02/12 10:21:14;;;;;;;8.52;7.63;;;;;;;6.70;49.56;100354.53;5074711;28;20036;-93
2023/02/12 10:24:06;;;;;;;8.43;7.07;;;;;;;6.64;49.67;100328.00;5073862;28;20040;-95
2023/02/12 10:26:39;;;;;;;8.63;7.72;;;;;;;6.86;49.07;100326.53;5067382;28;20048;-94
2023/02/12 10:29:13;;;;;;;8.35;7.45;;;;;;;6.95;48.50;100315.16;5073944;28;20087;-96
2023/02/12 10:31:43;;;;;;;8.23;7.43;;;;;;;6.96;48.45;100324.88;5073872;28;20395;-94
2023/02/12 10:34:16;;;;;;;8.60;7.50;;;;;;;6.95;48.93;100333.69;5074207;28;20464;-93
2023/02/12 10:36:44;;;;;;;8.50;7.60;;;;;;;6.58;49.23;100331.44;5078736;28;20093;-93
2023/02/12 10:39:18;;;;;;;9.02;8.13;;;;;;;6.47;49.69;100318.94;5084043;28;20036;-92
2023/02/12 10:41:51;;;;;;;8.90;7.63;;;;;;;6.78;49.56;100328.16;5083773;28;20047;-94
2023/02/12 10:44:17;;;;;;;8.98;8.07;;;;;;;7.20;48.99;100332.25;5080504;28;20131;-93
2023/02/12 10:46:43;;;;;;;9.23;8.32;;;;;;;7.46;49.17;100327.22;5080416;28;20131;-92
2023/02/12 10:49:12;;;;;;;9.00;8.05;;;;;;;7.45;48.01;100298.97;5079905;28;20131;-94
2023/02/12 10:51:59;;;;;;;9.95;8.55;;;;;;;7.67;47.58;100330.94;5078086;28;20506;-93
2023/02/12 10:54:39;;;;;;;9.35;8.35;;;;;;;7.74;47.72;100314.25;5080716;28;20040;-94
2023/02/12 10:57:14;;;;;;;8.68;7.82;;;;;;;7.82;46.94;100294.03;5077265;28;20041;-94
2023/02/12 10:59:41;;;;;;;9.45;7.70;;;;;;;8.06;46.63;100287.16;5092800;28;20441;-94
2023/02/12 11:02:23;;;;;;;9.18;8.15;;;;;;;8.30;46.48;100310.28;5076575;28;20048;-93
2023/02/12 11:04:50;;;;;;;8.70;7.80;;;;;;;8.38;46.20;100309.47;5077173;28;20098;-95
2023/02/12 11:07:16;;;;;;;8.32;7.53;;;;;;;8.48;45.54;100296.28;5079648;28;20555;-93
2023/02/12 11:09:44;;;;;;;9.10;7.93;;;;;;;8.34;45.86;100272.31;5077691;28;20037;-92
2023/02/12 11:12:20;;;;;;;8.45;7.45;;;;;;;8.58;45.68;100290.16;5081740;28;20033;-94
2023/02/12 11:14:48;;;;;;;8.63;7.78;;;;;;;8.62;45.80;100268.97;5079329;28;20048;-92
2023/02/12 11:17:23;;;;;;;8.80;7.88;;;;;;;8.51;44.89;100275.13;5083744;28;20059;-93
2023/02/12 11:20:02;;;;;;;9.23;8.23;;;;;;;8.70;44.91;100258.41;5083261;28;20044;-92
2023/02/12 11:22:29;;;;;;;9.13;7.82;;;;;;;8.86;45.30;100246.09;5081454;28;20553;-93
2023/02/12 11:25:01;;;;;;;9.48;8.35;;;;;;;9.04;44.79;100247.91;5079933;28;20075;-91
2023/02/12 11:27:29;;;;;;;9.13;7.72;;;;;;;9.25;44.21;100257.69;5078315;28;20037;-90
2023/02/12 11:30:20;;;;;;;9.63;8.63;;;;;;;9.45;43.32;100247.09;5075659;28;20136;-94
2023/02/12 11:32:48;;;;;;;11.07;9.98;;;;;;;9.33;43.47;100240.03;5059707;28;20056;-93
2023/02/12 11:35:22;;;;;;;9.95;8.85;;;;;;;9.22;44.36;100218.78;5082745;28;20032;-93
2023/02/12 11:37:49;;;;;;;10.32;8.98;;;;;;;9.30;44.40;100240.00;5076612;28;20045;-94
2023/02/12 11:40:19;;;;;;;11.48;8.55;;;;;;;9.15;44.38;100224.06;5078124;28;20036;-93